Miramar, Argentina
Current Conditions -  °F | °C
As of 9:00 PM on Wednesday 22 Oct 2014 (Local Time) from SACO Reporting Station
Clear Clear  
Wind Chill: 73°   Ceiling: Unl
Heat Index: 73°   Visibility: 6mi
Dew Point: 52°   Wind: 9mph
Humidity: 47%   Direction: 20°NNE
Pressure: 30"   Gusts: NA
Location:  30.9°S, 62.67°W
Report Text: SACO 230000Z 02008KT CAVOK 23/11 Q1016
Loading
Personal Weather Stations






























Interactive Weather Map New forecast layout! Learn more

10-Day Weather Forecast

Advertisements
Track Severe Weather on mobile